Terminal Aerodrome Forecast
Issued by NWS Jacksonville, FL

Home | Current Version | Previous Version | Text Only | Print | Product List | Glossary On
Versions: 1 2 3 4 5 6 7 8 9 10 11 12 13 14 15 16 17 18 19 20 21 22 23 24 25 26 27 28 29 30 31 32
000
FTUS42 KJAX 011122 AAA
TAFGNV
TAF AMD
KGNV 011122Z 0111/0212 00000KT 2SM BR SCT002 OVC012
      TEMPO 0112/0113 1/4SM FG OVC002
     FM011300 VRB03KT P6SM SCT012 BKN070 OVC250
      TEMPO 0113/0114 3SM BR BKN012
     FM011700 21007KT P6SM VCTS SCT020 BKN035CB BKN120
     FM020000 VRB03KT P6SM SCT040 BKN150=

USA.gov is the U.S. government's official web portal to all federal, state and local government web resources and services.